sensor_id;sensor_type;location;lat;lon;timestamp;P1;durP1;ratioP1;P2;durP2;ratioP2
12910;SDS011;6523;49.758;6.120;2024-02-26T00:02:16;0.80;;;0.80;;
12910;SDS011;6523;49.758;6.120;2024-02-26T00:04:41;0.93;;;0.80;;
12910;SDS011;6523;49.758;6.120;2024-02-26T00:07:07;2.67;;;1.10;;
12910;SDS011;6523;49.758;6.120;2024-02-26T00:09:33;1.13;;;0.97;;
12910;SDS011;6523;49.758;6.120;2024-02-26T00:12:01;1.53;;;1.00;;
12910;SDS011;6523;49.758;6.120;2024-02-26T00:14:29;1.33;;;0.90;;
12910;SDS011;6523;49.758;6.120;2024-02-26T00:16:54;0.83;;;0.70;;
12910;SDS011;6523;49.758;6.120;2024-02-26T00:19:20;0.80;;;0.80;;
12910;SDS011;6523;49.758;6.120;2024-02-26T00:21:46;1.03;;;0.80;;
12910;SDS011;6523;49.758;6.120;2024-02-26T00:24:12;1.53;;;1.43;;
12910;SDS011;6523;49.758;6.120;2024-02-26T00:26:37;0.93;;;0.80;;
12910;SDS011;6523;49.758;6.120;2024-02-26T00:29:03;0.90;;;0.80;;
12910;SDS011;6523;49.758;6.120;2024-02-26T00:31:28;0.67;;;0.60;;
12910;SDS011;6523;49.758;6.120;2024-02-26T00:33:54;2.90;;;2.03;;
12910;SDS011;6523;49.758;6.120;2024-02-26T00:36:20;3.97;;;2.50;;
12910;SDS011;6523;49.758;6.120;2024-02-26T00:38:46;1.00;;;0.90;;
12910;SDS011;6523;49.758;6.120;2024-02-26T00:41:15;5.10;;;2.90;;
12910;SDS011;6523;49.758;6.120;2024-02-26T00:43:48;1.40;;;1.30;;
12910;SDS011;6523;49.758;6.120;2024-02-26T00:46:13;0.87;;;0.80;;
12910;SDS011;6523;49.758;6.120;2024-02-26T00:48:39;1.30;;;1.10;;
12910;SDS011;6523;49.758;6.120;2024-02-26T00:51:05;1.27;;;0.87;;
12910;SDS011;6523;49.758;6.120;2024-02-26T00:53:31;0.90;;;0.90;;
12910;SDS011;6523;49.758;6.120;2024-02-26T00:55:57;1.40;;;0.90;;
12910;SDS011;6523;49.758;6.120;2024-02-26T00:58:26;1.50;;;1.00;;
12910;SDS011;6523;49.758;6.120;2024-02-26T01:00:52;0.70;;;0.70;;
12910;SDS011;6523;49.758;6.120;2024-02-26T01:03:18;2.13;;;1.00;;
12910;SDS011;6523;49.758;6.120;2024-02-26T01:05:43;1.40;;;1.30;;
12910;SDS011;6523;49.758;6.120;2024-02-26T01:08:09;0.80;;;0.80;;
12910;SDS011;6523;49.758;6.120;2024-02-26T01:10:35;0.73;;;0.73;;
12910;SDS011;6523;49.758;6.120;2024-02-26T01:13:01;0.60;;;0.60;;
12910;SDS011;6523;49.758;6.120;2024-02-26T01:15:26;1.00;;;0.87;;
12910;SDS011;6523;49.758;6.120;2024-02-26T01:17:52;0.60;;;0.60;;
12910;SDS011;6523;49.758;6.120;2024-02-26T01:20:18;1.00;;;0.90;;
12910;SDS011;6523;49.758;6.120;2024-02-26T01:22:45;0.67;;;0.67;;
12910;SDS011;6523;49.758;6.120;2024-02-26T01:25:11;0.77;;;0.77;;
12910;SDS011;6523;49.758;6.120;2024-02-26T01:27:37;1.00;;;0.90;;
12910;SDS011;6523;49.758;6.120;2024-02-26T01:30:03;1.33;;;0.70;;
12910;SDS011;6523;49.758;6.120;2024-02-26T01:32:30;0.80;;;0.80;;
12910;SDS011;6523;49.758;6.120;2024-02-26T01:34:56;1.17;;;0.80;;
12910;SDS011;6523;49.758;6.120;2024-02-26T01:37:21;1.27;;;0.80;;
12910;SDS011;6523;49.758;6.120;2024-02-26T01:39:47;0.90;;;0.80;;
12910;SDS011;6523;49.758;6.120;2024-02-26T01:42:13;0.80;;;0.80;;
12910;SDS011;6523;49.758;6.120;2024-02-26T01:44:38;0.97;;;0.80;;
12910;SDS011;6523;49.758;6.120;2024-02-26T01:47:04;0.90;;;0.90;;
12910;SDS011;6523;49.758;6.120;2024-02-26T01:49:33;1.43;;;0.80;;
12910;SDS011;6523;49.758;6.120;2024-02-26T01:52:00;1.30;;;1.20;;
12910;SDS011;6523;49.758;6.120;2024-02-26T01:54:27;1.03;;;0.80;;
12910;SDS011;6523;49.758;6.120;2024-02-26T01:56:54;1.30;;;0.77;;
12910;SDS011;6523;49.758;6.120;2024-02-26T01:59:21;0.80;;;0.80;;
12910;SDS011;6523;49.758;6.120;2024-02-26T02:01:48;0.87;;;0.87;;
12910;SDS011;6523;49.758;6.120;2024-02-26T02:04:22;1.10;;;0.90;;
12910;SDS011;6523;49.758;6.120;2024-02-26T02:06:49;0.70;;;0.70;;
12910;SDS011;6523;49.758;6.120;2024-02-26T02:09:15;0.80;;;0.80;;
12910;SDS011;6523;49.758;6.120;2024-02-26T02:11:41;2.87;;;0.93;;
12910;SDS011;6523;49.758;6.120;2024-02-26T02:14:07;0.80;;;0.80;;
12910;SDS011;6523;49.758;6.120;2024-02-26T02:16:33;1.17;;;0.93;;
12910;SDS011;6523;49.758;6.120;2024-02-26T02:18:59;1.20;;;1.10;;
12910;SDS011;6523;49.758;6.120;2024-02-26T02:21:24;1.40;;;1.30;;
12910;SDS011;6523;49.758;6.120;2024-02-26T02:23:50;1.60;;;1.50;;
12910;SDS011;6523;49.758;6.120;2024-02-26T02:26:15;1.87;;;1.60;;
12910;SDS011;6523;49.758;6.120;2024-02-26T02:28:42;1.30;;;1.20;;
12910;SDS011;6523;49.758;6.120;2024-02-26T02:31:08;1.43;;;1.00;;
12910;SDS011;6523;49.758;6.120;2024-02-26T02:33:34;1.40;;;1.30;;
12910;SDS011;6523;49.758;6.120;2024-02-26T02:36:00;1.10;;;1.00;;
12910;SDS011;6523;49.758;6.120;2024-02-26T02:38:26;1.07;;;0.97;;
12910;SDS011;6523;49.758;6.120;2024-02-26T02:40:54;0.90;;;0.90;;
12910;SDS011;6523;49.758;6.120;2024-02-26T02:43:20;0.70;;;0.70;;
12910;SDS011;6523;49.758;6.120;2024-02-26T02:45:46;0.80;;;0.80;;
12910;SDS011;6523;49.758;6.120;2024-02-26T02:48:11;0.63;;;0.53;;
12910;SDS011;6523;49.758;6.120;2024-02-26T02:50:37;0.60;;;0.60;;
12910;SDS011;6523;49.758;6.120;2024-02-26T02:53:03;0.67;;;0.67;;
12910;SDS011;6523;49.758;6.120;2024-02-26T02:55:28;0.70;;;0.70;;
12910;SDS011;6523;49.758;6.120;2024-02-26T02:57:54;0.80;;;0.80;;
12910;SDS011;6523;49.758;6.120;2024-02-26T03:00:20;0.97;;;0.70;;
12910;SDS011;6523;49.758;6.120;2024-02-26T03:02:48;0.60;;;0.60;;
12910;SDS011;6523;49.758;6.120;2024-02-26T03:05:14;0.60;;;0.60;;
12910;SDS011;6523;49.758;6.120;2024-02-26T03:07:39;0.90;;;0.70;;
12910;SDS011;6523;49.758;6.120;2024-02-26T03:10:05;0.83;;;0.80;;
12910;SDS011;6523;49.758;6.120;2024-02-26T03:12:33;0.57;;;0.57;;
12910;SDS011;6523;49.758;6.120;2024-02-26T03:14:59;1.53;;;0.73;;
12910;SDS011;6523;49.758;6.120;2024-02-26T03:17:28;0.70;;;0.70;;
12910;SDS011;6523;49.758;6.120;2024-02-26T03:19:54;0.50;;;0.50;;
12910;SDS011;6523;49.758;6.120;2024-02-26T03:22:20;1.17;;;0.70;;
12910;SDS011;6523;49.758;6.120;2024-02-26T03:24:46;0.50;;;0.50;;
12910;SDS011;6523;49.758;6.120;2024-02-26T03:27:12;1.03;;;0.60;;
12910;SDS011;6523;49.758;6.120;2024-02-26T03:29:38;0.70;;;0.70;;
12910;SDS011;6523;49.758;6.120;2024-02-26T03:32:04;0.43;;;0.43;;
12910;SDS011;6523;49.758;6.120;2024-02-26T03:34:30;0.70;;;0.70;;
12910;SDS011;6523;49.758;6.120;2024-02-26T03:36:56;0.97;;;0.50;;
12910;SDS011;6523;49.758;6.120;2024-02-26T03:39:22;0.47;;;0.47;;
12910;SDS011;6523;49.758;6.120;2024-02-26T03:41:48;0.40;;;0.40;;
12910;SDS011;6523;49.758;6.120;2024-02-26T03:44:14;0.57;;;0.50;;
12910;SDS011;6523;49.758;6.120;2024-02-26T03:46:40;0.53;;;0.47;;
12910;SDS011;6523;49.758;6.120;2024-02-26T03:49:07;0.60;;;0.60;;
12910;SDS011;6523;49.758;6.120;2024-02-26T03:51:33;1.43;;;0.60;;
12910;SDS011;6523;49.758;6.120;2024-02-26T03:53:59;0.67;;;0.53;;
12910;SDS011;6523;49.758;6.120;2024-02-26T03:56:25;0.87;;;0.80;;
12910;SDS011;6523;49.758;6.120;2024-02-26T03:58:51;0.70;;;0.70;;
12910;SDS011;6523;49.758;6.120;2024-02-26T04:01:17;6.20;;;3.27;;
12910;SDS011;6523;49.758;6.120;2024-02-26T04:03:43;10.40;;;5.27;;
12910;SDS011;6523;49.758;6.120;2024-02-26T04:06:09;13.27;;;6.70;;
12910;SDS011;6523;49.758;6.120;2024-02-26T04:08:43;2.57;;;1.50;;
12910;SDS011;6523;49.758;6.120;2024-02-26T04:11:08;1.67;;;1.20;;
12910;SDS011;6523;49.758;6.120;2024-02-26T04:13:34;0.70;;;0.70;;
12910;SDS011;6523;49.758;6.120;2024-02-26T04:16:00;0.70;;;0.70;;
12910;SDS011;6523;49.758;6.120;2024-02-26T04:18:27;0.70;;;0.70;;
12910;SDS011;6523;49.758;6.120;2024-02-26T04:20:53;0.60;;;0.60;;
12910;SDS011;6523;49.758;6.120;2024-02-26T04:23:19;0.50;;;0.50;;
12910;SDS011;6523;49.758;6.120;2024-02-26T04:25:45;0.90;;;0.90;;
12910;SDS011;6523;49.758;6.120;2024-02-26T04:28:10;0.83;;;0.83;;
12910;SDS011;6523;49.758;6.120;2024-02-26T04:30:37;0.60;;;0.60;;
12910;SDS011;6523;49.758;6.120;2024-02-26T04:33:03;0.70;;;0.70;;
12910;SDS011;6523;49.758;6.120;2024-02-26T04:35:29;0.70;;;0.70;;
12910;SDS011;6523;49.758;6.120;2024-02-26T04:37:54;1.13;;;0.90;;
12910;SDS011;6523;49.758;6.120;2024-02-26T04:40:20;1.33;;;1.13;;
12910;SDS011;6523;49.758;6.120;2024-02-26T04:42:46;1.20;;;1.10;;
12910;SDS011;6523;49.758;6.120;2024-02-26T04:45:12;2.07;;;1.70;;
12910;SDS011;6523;49.758;6.120;2024-02-26T04:47:37;1.10;;;1.00;;
12910;SDS011;6523;49.758;6.120;2024-02-26T04:50:03;1.20;;;1.10;;
12910;SDS011;6523;49.758;6.120;2024-02-26T04:52:29;1.10;;;1.00;;
12910;SDS011;6523;49.758;6.120;2024-02-26T04:54:55;0.90;;;0.90;;
12910;SDS011;6523;49.758;6.120;2024-02-26T04:57:21;1.00;;;1.00;;
12910;SDS011;6523;49.758;6.120;2024-02-26T04:59:46;0.97;;;0.93;;
12910;SDS011;6523;49.758;6.120;2024-02-26T05:02:12;0.80;;;0.80;;
12910;SDS011;6523;49.758;6.120;2024-02-26T05:04:38;1.20;;;1.20;;
12910;SDS011;6523;49.758;6.120;2024-02-26T05:07:04;1.30;;;0.80;;
12910;SDS011;6523;49.758;6.120;2024-02-26T05:09:30;1.23;;;1.17;;
12910;SDS011;6523;49.758;6.120;2024-02-26T05:11:55;1.33;;;0.90;;
12910;SDS011;6523;49.758;6.120;2024-02-26T05:14:21;1.53;;;1.30;;
12910;SDS011;6523;49.758;6.120;2024-02-26T05:16:47;1.00;;;1.00;;
12910;SDS011;6523;49.758;6.120;2024-02-26T05:19:12;1.20;;;1.10;;
12910;SDS011;6523;49.758;6.120;2024-02-26T05:21:38;1.30;;;1.20;;
12910;SDS011;6523;49.758;6.120;2024-02-26T05:24:05;0.93;;;0.93;;
12910;SDS011;6523;49.758;6.120;2024-02-26T05:26:34;1.73;;;0.93;;
12910;SDS011;6523;49.758;6.120;2024-02-26T05:28:59;0.90;;;0.90;;
12910;SDS011;6523;49.758;6.120;2024-02-26T05:31:25;1.03;;;1.03;;
12910;SDS011;6523;49.758;6.120;2024-02-26T05:33:51;0.80;;;0.80;;
12910;SDS011;6523;49.758;6.120;2024-02-26T05:36:20;0.97;;;0.90;;
12910;SDS011;6523;49.758;6.120;2024-02-26T05:38:47;0.97;;;0.97;;
12910;SDS011;6523;49.758;6.120;2024-02-26T05:41:14;0.80;;;0.80;;
12910;SDS011;6523;49.758;6.120;2024-02-26T05:43:41;0.90;;;0.90;;
12910;SDS011;6523;49.758;6.120;2024-02-26T05:46:07;2.73;;;0.90;;
12910;SDS011;6523;49.758;6.120;2024-02-26T05:48:33;0.90;;;0.80;;
12910;SDS011;6523;49.758;6.120;2024-02-26T05:50:59;1.10;;;0.70;;
12910;SDS011;6523;49.758;6.120;2024-02-26T05:53:24;1.53;;;0.77;;
12910;SDS011;6523;49.758;6.120;2024-02-26T05:55:50;0.70;;;0.70;;
12910;SDS011;6523;49.758;6.120;2024-02-26T05:58:16;0.67;;;0.60;;
12910;SDS011;6523;49.758;6.120;2024-02-26T06:00:41;0.60;;;0.60;;
12910;SDS011;6523;49.758;6.120;2024-02-26T06:03:07;0.60;;;0.60;;
12910;SDS011;6523;49.758;6.120;2024-02-26T06:05:33;0.50;;;0.50;;
12910;SDS011;6523;49.758;6.120;2024-02-26T06:07:58;0.50;;;0.50;;
12910;SDS011;6523;49.758;6.120;2024-02-26T06:10:24;0.60;;;0.60;;
12910;SDS011;6523;49.758;6.120;2024-02-26T06:12:49;0.63;;;0.63;;
12910;SDS011;6523;49.758;6.120;2024-02-26T06:15:15;0.70;;;0.70;;
12910;SDS011;6523;49.758;6.120;2024-02-26T06:17:41;1.23;;;0.70;;
12910;SDS011;6523;49.758;6.120;2024-02-26T06:20:07;0.90;;;0.90;;
12910;SDS011;6523;49.758;6.120;2024-02-26T06:22:36;0.83;;;0.80;;
12910;SDS011;6523;49.758;6.120;2024-02-26T06:25:02;1.20;;;1.10;;
12910;SDS011;6523;49.758;6.120;2024-02-26T06:27:28;1.10;;;0.97;;
12910;SDS011;6523;49.758;6.120;2024-02-26T06:29:53;0.80;;;0.80;;
12910;SDS011;6523;49.758;6.120;2024-02-26T06:32:19;0.80;;;0.80;;
12910;SDS011;6523;49.758;6.120;2024-02-26T06:34:45;0.80;;;0.80;;
12910;SDS011;6523;49.758;6.120;2024-02-26T06:37:10;1.00;;;0.83;;
12910;SDS011;6523;49.758;6.120;2024-02-26T06:39:36;0.70;;;0.70;;
12910;SDS011;6523;49.758;6.120;2024-02-26T06:42:03;0.80;;;0.80;;
12910;SDS011;6523;49.758;6.120;2024-02-26T06:44:28;0.60;;;0.60;;
12910;SDS011;6523;49.758;6.120;2024-02-26T06:46:57;0.90;;;0.90;;
12910;SDS011;6523;49.758;6.120;2024-02-26T06:49:24;0.80;;;0.80;;
12910;SDS011;6523;49.758;6.120;2024-02-26T06:51:50;0.63;;;0.63;;
12910;SDS011;6523;49.758;6.120;2024-02-26T06:54:16;0.70;;;0.70;;
12910;SDS011;6523;49.758;6.120;2024-02-26T06:56:41;1.43;;;1.20;;
12910;SDS011;6523;49.758;6.120;2024-02-26T06:59:07;0.90;;;0.90;;
12910;SDS011;6523;49.758;6.120;2024-02-26T07:01:32;0.83;;;0.83;;
12910;SDS011;6523;49.758;6.120;2024-02-26T07:03:58;0.80;;;0.80;;
12910;SDS011;6523;49.758;6.120;2024-02-26T07:06:24;0.70;;;0.70;;
12910;SDS011;6523;49.758;6.120;2024-02-26T07:08:49;1.30;;;1.20;;
12910;SDS011;6523;49.758;6.120;2024-02-26T07:11:15;0.90;;;0.90;;
12910;SDS011;6523;49.758;6.120;2024-02-26T07:13:40;0.87;;;0.87;;
12910;SDS011;6523;49.758;6.120;2024-02-26T07:16:08;0.93;;;0.93;;
12910;SDS011;6523;49.758;6.120;2024-02-26T07:18:34;0.73;;;0.73;;
12910;SDS011;6523;49.758;6.120;2024-02-26T07:21:01;0.60;;;0.60;;
12910;SDS011;6523;49.758;6.120;2024-02-26T07:23:27;0.90;;;0.90;;
12910;SDS011;6523;49.758;6.120;2024-02-26T07:25:53;0.90;;;0.90;;
12910;SDS011;6523;49.758;6.120;2024-02-26T07:28:19;0.90;;;0.90;;
12910;SDS011;6523;49.758;6.120;2024-02-26T07:30:44;1.00;;;1.00;;
12910;SDS011;6523;49.758;6.120;2024-02-26T07:33:10;1.07;;;0.97;;
12910;SDS011;6523;49.758;6.120;2024-02-26T07:35:35;1.10;;;1.00;;
12910;SDS011;6523;49.758;6.120;2024-02-26T07:38:03;1.13;;;1.03;;
12910;SDS011;6523;49.758;6.120;2024-02-26T07:40:29;1.30;;;1.17;;
12910;SDS011;6523;49.758;6.120;2024-02-26T07:42:55;0.97;;;0.97;;
12910;SDS011;6523;49.758;6.120;2024-02-26T07:45:21;1.33;;;1.23;;
12910;SDS011;6523;49.758;6.120;2024-02-26T07:47:46;0.97;;;0.97;;
12910;SDS011;6523;49.758;6.120;2024-02-26T07:50:12;1.10;;;1.00;;
12910;SDS011;6523;49.758;6.120;2024-02-26T07:52:38;1.13;;;1.13;;
12910;SDS011;6523;49.758;6.120;2024-02-26T07:55:04;1.00;;;1.00;;
12910;SDS011;6523;49.758;6.120;2024-02-26T07:57:32;1.00;;;1.00;;
12910;SDS011;6523;49.758;6.120;2024-02-26T07:59:58;1.23;;;1.13;;
12910;SDS011;6523;49.758;6.120;2024-02-26T08:02:24;1.13;;;1.10;;
12910;SDS011;6523;49.758;6.120;2024-02-26T08:04:50;1.40;;;1.30;;
12910;SDS011;6523;49.758;6.120;2024-02-26T08:07:15;1.17;;;1.17;;
12910;SDS011;6523;49.758;6.120;2024-02-26T08:09:41;1.27;;;1.27;;
12910;SDS011;6523;49.758;6.120;2024-02-26T08:12:07;1.03;;;1.03;;
12910;SDS011;6523;49.758;6.120;2024-02-26T08:14:33;1.20;;;1.10;;
12910;SDS011;6523;49.758;6.120;2024-02-26T08:16:59;1.27;;;1.20;;
12910;SDS011;6523;49.758;6.120;2024-02-26T08:19:24;1.67;;;1.57;;
12910;SDS011;6523;49.758;6.120;2024-02-26T08:21:52;1.33;;;1.23;;
12910;SDS011;6523;49.758;6.120;2024-02-26T08:24:17;1.70;;;1.20;;
12910;SDS011;6523;49.758;6.120;2024-02-26T08:26:43;1.67;;;1.57;;
12910;SDS011;6523;49.758;6.120;2024-02-26T08:29:09;1.87;;;1.60;;
12910;SDS011;6523;49.758;6.120;2024-02-26T08:31:34;1.27;;;1.17;;
12910;SDS011;6523;49.758;6.120;2024-02-26T08:34:02;1.50;;;1.40;;
12910;SDS011;6523;49.758;6.120;2024-02-26T08:36:28;1.30;;;1.20;;
12910;SDS011;6523;49.758;6.120;2024-02-26T08:38:55;2.07;;;1.53;;
12910;SDS011;6523;49.758;6.120;2024-02-26T08:41:20;1.50;;;1.40;;
12910;SDS011;6523;49.758;6.120;2024-02-26T08:43:46;1.83;;;1.73;;
12910;SDS011;6523;49.758;6.120;2024-02-26T08:46:14;2.07;;;1.50;;
12910;SDS011;6523;49.758;6.120;2024-02-26T08:48:40;1.77;;;1.67;;
12910;SDS011;6523;49.758;6.120;2024-02-26T08:51:06;1.73;;;1.63;;
12910;SDS011;6523;49.758;6.120;2024-02-26T08:53:32;2.00;;;1.80;;
12910;SDS011;6523;49.758;6.120;2024-02-26T08:55:58;1.63;;;1.53;;
12910;SDS011;6523;49.758;6.120;2024-02-26T08:58:24;1.60;;;1.50;;
12910;SDS011;6523;49.758;6.120;2024-02-26T09:00:50;1.83;;;1.73;;
12910;SDS011;6523;49.758;6.120;2024-02-26T09:03:15;2.43;;;1.40;;
12910;SDS011;6523;49.758;6.120;2024-02-26T09:05:42;1.57;;;1.43;;
12910;SDS011;6523;49.758;6.120;2024-02-26T09:08:08;1.63;;;1.53;;
12910;SDS011;6523;49.758;6.120;2024-02-26T09:10:33;1.57;;;1.47;;
12910;SDS011;6523;49.758;6.120;2024-02-26T09:12:59;1.90;;;1.80;;
12910;SDS011;6523;49.758;6.120;2024-02-26T09:15:25;1.70;;;1.60;;
12910;SDS011;6523;49.758;6.120;2024-02-26T09:17:50;1.90;;;1.80;;
12910;SDS011;6523;49.758;6.120;2024-02-26T09:20:17;2.17;;;1.97;;
12910;SDS011;6523;49.758;6.120;2024-02-26T09:22:46;1.90;;;1.80;;
12910;SDS011;6523;49.758;6.120;2024-02-26T09:25:12;2.60;;;2.40;;
12910;SDS011;6523;49.758;6.120;2024-02-26T09:27:38;2.30;;;2.00;;
12910;SDS011;6523;49.758;6.120;2024-02-26T09:30:04;2.20;;;2.00;;
12910;SDS011;6523;49.758;6.120;2024-02-26T09:32:30;2.57;;;2.37;;
12910;SDS011;6523;49.758;6.120;2024-02-26T09:34:56;2.57;;;2.33;;
12910;SDS011;6523;49.758;6.120;2024-02-26T09:37:21;2.40;;;2.20;;
12910;SDS011;6523;49.758;6.120;2024-02-26T09:39:47;3.50;;;2.77;;
12910;SDS011;6523;49.758;6.120;2024-02-26T09:42:13;3.93;;;2.70;;
12910;SDS011;6523;49.758;6.120;2024-02-26T09:44:39;3.23;;;2.57;;
12910;SDS011;6523;49.758;6.120;2024-02-26T09:47:07;3.30;;;3.00;;
12910;SDS011;6523;49.758;6.120;2024-02-26T09:49:36;4.73;;;3.00;;
12910;SDS011;6523;49.758;6.120;2024-02-26T09:52:03;3.30;;;2.77;;
12910;SDS011;6523;49.758;6.120;2024-02-26T09:54:30;4.00;;;3.70;;
12910;SDS011;6523;49.758;6.120;2024-02-26T09:56:59;3.80;;;3.30;;
12910;SDS011;6523;49.758;6.120;2024-02-26T09:59:27;4.00;;;3.60;;
12910;SDS011;6523;49.758;6.120;2024-02-26T10:01:54;3.40;;;3.10;;
12910;SDS011;6523;49.758;6.120;2024-02-26T10:04:22;3.30;;;3.00;;
12910;SDS011;6523;49.758;6.120;2024-02-26T10:06:50;3.10;;;2.90;;
12910;SDS011;6523;49.758;6.120;2024-02-26T10:09:17;3.00;;;2.80;;
12910;SDS011;6523;49.758;6.120;2024-02-26T10:11:44;3.00;;;2.80;;
12910;SDS011;6523;49.758;6.120;2024-02-26T10:14:11;3.20;;;2.90;;
12910;SDS011;6523;49.758;6.120;2024-02-26T10:16:37;2.90;;;2.67;;
12910;SDS011;6523;49.758;6.120;2024-02-26T10:19:03;3.30;;;2.60;;
12910;SDS011;6523;49.758;6.120;2024-02-26T10:21:29;3.80;;;2.70;;
12910;SDS011;6523;49.758;6.120;2024-02-26T10:23:55;2.77;;;2.57;;
12910;SDS011;6523;49.758;6.120;2024-02-26T10:26:20;2.80;;;2.43;;
12910;SDS011;6523;49.758;6.120;2024-02-26T10:28:46;2.63;;;2.40;;
12910;SDS011;6523;49.758;6.120;2024-02-26T10:31:13;2.97;;;2.77;;
12910;SDS011;6523;49.758;6.120;2024-02-26T10:33:39;3.47;;;3.17;;
12910;SDS011;6523;49.758;6.120;2024-02-26T10:36:07;3.60;;;3.30;;
12910;SDS011;6523;49.758;6.120;2024-02-26T10:38:34;3.40;;;3.10;;
12910;SDS011;6523;49.758;6.120;2024-02-26T10:41:04;4.10;;;3.40;;
12910;SDS011;6523;49.758;6.120;2024-02-26T10:43:31;3.53;;;3.23;;
12910;SDS011;6523;49.758;6.120;2024-02-26T10:45:56;3.60;;;3.30;;
12910;SDS011;6523;49.758;6.120;2024-02-26T10:48:22;4.20;;;3.80;;
12910;SDS011;6523;49.758;6.120;2024-02-26T10:50:48;3.83;;;3.53;;
12910;SDS011;6523;49.758;6.120;2024-02-26T10:53:16;3.37;;;3.07;;
12910;SDS011;6523;49.758;6.120;2024-02-26T10:55:46;3.73;;;2.80;;
12910;SDS011;6523;49.758;6.120;2024-02-26T10:58:25;3.27;;;2.97;;
12910;SDS011;6523;49.758;6.120;2024-02-26T11:00:52;2.83;;;2.53;;
12910;SDS011;6523;49.758;6.120;2024-02-26T11:03:18;2.80;;;2.60;;
12910;SDS011;6523;49.758;6.120;2024-02-26T11:05:48;3.73;;;2.37;;
12910;SDS011;6523;49.758;6.120;2024-02-26T11:08:18;2.50;;;2.30;;
12910;SDS011;6523;49.758;6.120;2024-02-26T11:10:48;2.80;;;2.60;;
12910;SDS011;6523;49.758;6.120;2024-02-26T11:13:18;2.50;;;2.30;;
12910;SDS011;6523;49.758;6.120;2024-02-26T11:15:46;3.43;;;3.23;;
12910;SDS011;6523;49.758;6.120;2024-02-26T11:18:13;2.07;;;1.97;;
12910;SDS011;6523;49.758;6.120;2024-02-26T11:20:40;2.60;;;2.10;;
12910;SDS011;6523;49.758;6.120;2024-02-26T11:23:07;2.53;;;2.33;;
12910;SDS011;6523;49.758;6.120;2024-02-26T11:25:34;2.73;;;1.90;;
12910;SDS011;6523;49.758;6.120;2024-02-26T11:28:01;2.50;;;1.70;;
12910;SDS011;6523;49.758;6.120;2024-02-26T11:30:35;3.60;;;1.90;;
12910;SDS011;6523;49.758;6.120;2024-02-26T11:33:06;2.30;;;1.93;;
12910;SDS011;6523;49.758;6.120;2024-02-26T11:35:34;2.10;;;2.00;;
12910;SDS011;6523;49.758;6.120;2024-02-26T11:38:01;2.53;;;2.33;;
12910;SDS011;6523;49.758;6.120;2024-02-26T11:40:28;2.90;;;2.20;;
12910;SDS011;6523;49.758;6.120;2024-02-26T11:42:56;2.03;;;1.73;;
12910;SDS011;6523;49.758;6.120;2024-02-26T11:48:11;2.43;;;2.03;;
12910;SDS011;6523;49.758;6.120;2024-02-26T11:59:10;2.20;;;2.10;;
12910;SDS011;6523;49.758;6.120;2024-02-26T12:01:47;4.23;;;1.90;;
12910;SDS011;6523;49.758;6.120;2024-02-26T12:04:26;3.33;;;2.20;;
12910;SDS011;6523;49.758;6.120;2024-02-26T12:06:58;2.03;;;1.80;;
12910;SDS011;6523;49.758;6.120;2024-02-26T12:14:37;2.20;;;2.10;;
12910;SDS011;6523;49.758;6.120;2024-02-26T12:17:19;2.90;;;2.20;;
12910;SDS011;6523;49.758;6.120;2024-02-26T12:19:45;2.30;;;2.10;;
12910;SDS011;6523;49.758;6.120;2024-02-26T12:22:12;3.40;;;2.53;;
12910;SDS011;6523;49.758;6.120;2024-02-26T12:24:39;2.80;;;2.60;;
12910;SDS011;6523;49.758;6.120;2024-02-26T12:27:05;3.57;;;2.97;;
12910;SDS011;6523;49.758;6.120;2024-02-26T12:29:31;3.50;;;2.70;;
12910;SDS011;6523;49.758;6.120;2024-02-26T12:31:57;4.20;;;2.77;;
12910;SDS011;6523;49.758;6.120;2024-02-26T12:34:23;4.37;;;2.87;;
12910;SDS011;6523;49.758;6.120;2024-02-26T12:36:49;3.40;;;3.10;;
12910;SDS011;6523;49.758;6.120;2024-02-26T12:39:14;3.77;;;3.40;;
12910;SDS011;6523;49.758;6.120;2024-02-26T12:41:40;3.40;;;3.10;;
12910;SDS011;6523;49.758;6.120;2024-02-26T12:44:07;4.00;;;3.70;;
12910;SDS011;6523;49.758;6.120;2024-02-26T12:46:33;3.57;;;3.03;;
12910;SDS011;6523;49.758;6.120;2024-02-26T12:48:59;3.20;;;3.00;;
12910;SDS011;6523;49.758;6.120;2024-02-26T12:51:25;3.40;;;3.20;;
12910;SDS011;6523;49.758;6.120;2024-02-26T12:53:51;3.37;;;3.07;;
12910;SDS011;6523;49.758;6.120;2024-02-26T12:56:18;3.10;;;2.90;;
12910;SDS011;6523;49.758;6.120;2024-02-26T12:58:44;3.50;;;3.30;;
12910;SDS011;6523;49.758;6.120;2024-02-26T13:01:13;3.40;;;3.10;;
12910;SDS011;6523;49.758;6.120;2024-02-26T13:03:41;2.77;;;2.57;;
12910;SDS011;6523;49.758;6.120;2024-02-26T13:06:07;3.30;;;3.00;;
12910;SDS011;6523;49.758;6.120;2024-02-26T13:08:34;3.40;;;3.20;;
12910;SDS011;6523;49.758;6.120;2024-02-26T13:11:00;3.80;;;2.73;;
12910;SDS011;6523;49.758;6.120;2024-02-26T13:13:25;4.03;;;3.63;;
12910;SDS011;6523;49.758;6.120;2024-02-26T13:18:30;3.73;;;2.73;;
12910;SDS011;6523;49.758;6.120;2024-02-26T13:21:14;3.57;;;3.00;;
12910;SDS011;6523;49.758;6.120;2024-02-26T13:23:40;3.13;;;2.83;;
12910;SDS011;6523;49.758;6.120;2024-02-26T13:26:07;2.80;;;2.60;;
12910;SDS011;6523;49.758;6.120;2024-02-26T13:28:33;2.50;;;2.27;;
12910;SDS011;6523;49.758;6.120;2024-02-26T13:30:59;3.03;;;2.33;;
12910;SDS011;6523;49.758;6.120;2024-02-26T13:33:27;3.27;;;2.80;;
12910;SDS011;6523;49.758;6.120;2024-02-26T13:35:57;2.53;;;2.33;;
12910;SDS011;6523;49.758;6.120;2024-02-26T13:38:23;2.90;;;2.20;;
12910;SDS011;6523;49.758;6.120;2024-02-26T13:40:50;2.60;;;2.33;;
12910;SDS011;6523;49.758;6.120;2024-02-26T13:43:16;4.30;;;2.57;;
12910;SDS011;6523;49.758;6.120;2024-02-26T13:45:42;4.17;;;2.60;;
12910;SDS011;6523;49.758;6.120;2024-02-26T13:48:09;3.20;;;3.00;;
12910;SDS011;6523;49.758;6.120;2024-02-26T13:50:36;3.73;;;3.40;;
12910;SDS011;6523;49.758;6.120;2024-02-26T13:53:02;2.23;;;2.13;;
12910;SDS011;6523;49.758;6.120;2024-02-26T13:55:29;2.87;;;2.67;;
12910;SDS011;6523;49.758;6.120;2024-02-26T13:57:57;2.83;;;2.63;;
12910;SDS011;6523;49.758;6.120;2024-02-26T14:00:24;4.13;;;2.93;;
12910;SDS011;6523;49.758;6.120;2024-02-26T14:02:50;2.90;;;2.70;;
12910;SDS011;6523;49.758;6.120;2024-02-26T14:05:16;3.13;;;2.80;;
12910;SDS011;6523;49.758;6.120;2024-02-26T14:07:41;2.87;;;2.67;;
12910;SDS011;6523;49.758;6.120;2024-02-26T14:10:08;3.83;;;2.60;;
12910;SDS011;6523;49.758;6.120;2024-02-26T14:12:36;2.60;;;2.20;;
12910;SDS011;6523;49.758;6.120;2024-02-26T14:15:03;2.60;;;2.40;;
12910;SDS011;6523;49.758;6.120;2024-02-26T14:17:30;3.73;;;2.97;;
12910;SDS011;6523;49.758;6.120;2024-02-26T14:19:56;2.30;;;2.10;;
12910;SDS011;6523;49.758;6.120;2024-02-26T14:22:21;4.23;;;2.27;;
12910;SDS011;6523;49.758;6.120;2024-02-26T14:24:47;5.23;;;2.03;;
12910;SDS011;6523;49.758;6.120;2024-02-26T14:27:13;2.53;;;2.10;;
12910;SDS011;6523;49.758;6.120;2024-02-26T14:29:42;2.07;;;1.90;;
12910;SDS011;6523;49.758;6.120;2024-02-26T14:32:09;2.00;;;1.80;;
12910;SDS011;6523;49.758;6.120;2024-02-26T14:34:35;2.90;;;1.70;;
12910;SDS011;6523;49.758;6.120;2024-02-26T14:37:00;1.73;;;1.50;;
12910;SDS011;6523;49.758;6.120;2024-02-26T14:39:26;2.20;;;2.00;;
12910;SDS011;6523;49.758;6.120;2024-02-26T14:41:52;2.33;;;1.70;;
12910;SDS011;6523;49.758;6.120;2024-02-26T14:44:18;2.70;;;1.50;;
12910;SDS011;6523;49.758;6.120;2024-02-26T14:46:43;2.53;;;1.80;;
12910;SDS011;6523;49.758;6.120;2024-02-26T14:49:09;1.70;;;1.60;;
12910;SDS011;6523;49.758;6.120;2024-02-26T14:51:36;2.00;;;1.50;;
12910;SDS011;6523;49.758;6.120;2024-02-26T14:54:02;3.23;;;1.50;;
12910;SDS011;6523;49.758;6.120;2024-02-26T14:56:27;2.33;;;1.50;;
12910;SDS011;6523;49.758;6.120;2024-02-26T14:58:53;1.53;;;1.33;;
12910;SDS011;6523;49.758;6.120;2024-02-26T15:01:18;1.83;;;1.50;;
12910;SDS011;6523;49.758;6.120;2024-02-26T15:03:44;2.43;;;1.20;;
12910;SDS011;6523;49.758;6.120;2024-02-26T15:06:10;1.63;;;1.47;;
12910;SDS011;6523;49.758;6.120;2024-02-26T15:08:35;1.57;;;1.33;;
12910;SDS011;6523;49.758;6.120;2024-02-26T15:11:02;1.67;;;1.20;;
12910;SDS011;6523;49.758;6.120;2024-02-26T15:13:28;1.90;;;1.47;;
12910;SDS011;6523;49.758;6.120;2024-02-26T15:15:54;1.53;;;1.10;;